Time;durP1;ratioP1;P1;durP2;ratioP2;P2;SDS_P1;SDS_P2;PMS_P1;PMS_P2;Temp;Humidity;BMP_temperature;BMP_pressure;BME280_temperature;BME280_humidity;BME280_pressure;Samples;Min_cycle;Max_cycle;Signal;HPM_P1;HPM_P2
2023/05/18 00:00:01;;;;;;;12.17;2.23;;;;;;;8.12;68.42;100914.25;4210631;28;20240;-66
2023/05/18 00:02:28;;;;;;;12.90;2.03;;;;;;;8.13;68.57;100915.13;4204988;28;20235;-69
2023/05/18 00:04:54;;;;;;;9.90;2.03;;;;;;;7.97;69.23;100915.47;4205613;28;20249;-70
2023/05/18 00:07:21;;;;;;;8.70;1.97;;;;;;;8.02;69.17;100914.09;4206923;28;21231;-66
2023/05/18 00:09:47;;;;;;;11.53;1.90;;;;;;;8.07;69.29;100922.72;4203944;28;20236;-68
2023/05/18 00:12:14;;;;;;;11.10;2.07;;;;;;;7.96;69.89;100916.44;4206530;28;21135;-69
2023/05/18 00:14:41;;;;;;;14.60;1.93;;;;;;;7.96;69.94;100919.13;4205535;28;20228;-67
2023/05/18 00:17:07;;;;;;;13.27;2.37;;;;;;;7.97;69.82;100921.72;4208226;28;25578;-67
2023/05/18 00:19:35;;;;;;;11.37;2.57;;;;;;;8.00;69.48;100926.00;4207597;28;20239;-67
2023/05/18 00:22:02;;;;;;;10.47;2.27;;;;;;;7.83;70.75;100921.91;4212062;28;21140;-69
2023/05/18 00:24:29;;;;;;;10.90;1.87;;;;;;;7.77;70.87;100920.53;4213891;28;20237;-66
2023/05/18 00:26:55;;;;;;;7.07;1.80;;;;;;;7.87;70.59;100926.94;4207406;28;20882;-68
2023/05/18 00:29:22;;;;;;;18.67;2.30;;;;;;;7.86;70.71;100925.22;4205366;28;20577;-68
2023/05/18 00:31:48;;;;;;;12.83;2.47;;;;;;;7.91;70.79;100928.41;4206979;28;20239;-71
2023/05/18 00:34:15;;;;;;;10.37;1.97;;;;;;;7.90;70.88;100920.47;4211048;28;25199;-69
2023/05/18 00:36:42;;;;;;;11.37;1.70;;;;;;;7.85;71.18;100928.91;4208254;28;20233;-67
2023/05/18 00:39:09;;;;;;;10.53;2.13;;;;;;;7.80;71.58;100922.13;4209276;28;20310;-70
2023/05/18 00:41:35;;;;;;;14.73;2.67;;;;;;;7.75;71.84;100927.88;4206722;28;22857;-68
2023/05/18 00:44:03;;;;;;;10.13;1.97;;;;;;;7.84;71.62;100929.03;4205085;28;25601;-67
2023/05/18 00:46:30;;;;;;;10.10;2.17;;;;;;;7.81;71.71;100934.63;4207676;28;21475;-68
2023/05/18 00:48:57;;;;;;;12.73;2.67;;;;;;;7.77;71.86;100939.41;4211276;28;20237;-68
2023/05/18 00:51:24;;;;;;;13.70;2.50;;;;;;;7.79;71.87;100937.47;4210015;28;20235;-68
2023/05/18 00:53:52;;;;;;;9.40;2.37;;;;;;;7.73;72.22;100951.41;4205120;28;22028;-67
2023/05/18 00:56:22;;;;;;;14.03;2.60;;;;;;;7.73;71.86;100960.34;4209144;28;20236;-67
2023/05/18 00:58:51;;;;;;;11.27;2.30;;;;;;;7.59;72.70;100952.44;4208495;28;20241;-68
2023/05/18 01:01:18;;;;;;;11.47;2.27;;;;;;;7.57;72.68;100949.00;4230614;28;20319;-66
2023/05/18 01:03:44;;;;;;;11.60;2.00;;;;;;;7.49;73.30;100956.78;4196677;28;23630;-67
2023/05/18 01:06:11;;;;;;;10.03;2.20;;;;;;;7.54;72.69;100958.16;4209708;28;20388;-67
2023/05/18 01:08:38;;;;;;;10.70;2.37;;;;;;;7.43;73.64;100955.44;4210937;28;21752;-68
2023/05/18 01:11:15;;;;;;;18.17;2.93;;;;;;;7.37;73.85;100959.44;4208668;28;21765;-67
2023/05/18 01:13:55;;;;;;;18.60;2.23;;;;;;;7.53;73.50;100961.00;4201098;28;20252;-66
2023/05/18 01:16:25;;;;;;;17.20;2.77;;;;;;;7.33;73.86;100947.16;4210686;28;20300;-69
2023/05/18 01:19:00;;;;;;;14.03;2.43;;;;;;;7.29;74.27;100953.75;4209993;28;26146;-68
2023/05/18 01:21:45;;;;;;;10.77;2.47;;;;;;;7.19;74.92;100958.97;4206053;28;20728;-70
2023/05/18 01:24:18;;;;;;;14.23;2.50;;;;;;;7.23;74.55;100965.81;4222657;28;20223;-69
2023/05/18 01:26:46;;;;;;;10.27;2.10;;;;;;;7.28;74.52;100965.50;4204998;28;20246;-68
2023/05/18 01:29:13;;;;;;;13.80;2.10;;;;;;;7.10;75.08;100970.41;4215444;28;20248;-67
2023/05/18 01:31:40;;;;;;;10.47;2.30;;;;;;;7.04;75.30;100969.00;4223639;28;20287;-68
2023/05/18 01:34:06;;;;;;;15.70;2.50;;;;;;;7.12;75.25;100974.69;4209154;28;20430;-67
2023/05/18 01:36:33;;;;;;;9.00;2.10;;;;;;;7.16;75.42;100966.41;4216427;28;22083;-71
2023/05/18 01:39:00;;;;;;;17.00;2.10;;;;;;;7.04;76.01;100970.84;4212287;28;20608;-66
2023/05/18 01:41:29;;;;;;;9.10;1.87;;;;;;;7.05;76.24;100972.56;4214842;28;21690;-67
2023/05/18 01:44:08;;;;;;;9.23;2.00;;;;;;;6.99;76.85;100965.78;4197836;28;20305;-68
2023/05/18 01:46:58;;;;;;;11.97;2.27;;;;;;;6.95;76.77;100957.09;4220482;28;20694;-66
2023/05/18 01:49:34;;;;;;;8.83;1.90;;;;;;;6.86;77.07;100967.66;4193703;28;20322;-66
2023/05/18 01:52:06;;;;;;;11.73;2.37;;;;;;;6.75;77.19;100963.91;4201301;28;22674;-67
2023/05/18 01:54:32;;;;;;;11.73;2.50;;;;;;;6.81;77.13;100970.69;4186291;28;21104;-67
2023/05/18 01:56:59;;;;;;;16.07;2.70;;;;;;;6.75;77.20;100969.28;4226853;28;20244;-67
2023/05/18 01:59:27;;;;;;;11.77;2.13;;;;;;;6.79;77.41;100969.91;4212492;28;20247;-69
2023/05/18 02:01:58;;;;;;;10.40;2.00;;;;;;;6.74;77.37;100972.94;4213084;28;20246;-67
2023/05/18 02:04:26;;;;;;;11.43;2.17;;;;;;;6.64;77.73;100977.28;4217256;28;20228;-68
2023/05/18 02:06:54;;;;;;;10.47;2.50;;;;;;;6.66;77.88;100981.56;4199412;28;20236;-68
2023/05/18 02:09:21;;;;;;;13.40;2.50;;;;;;;6.64;78.02;100988.03;4211292;28;22059;-68
2023/05/18 02:11:48;;;;;;;11.17;2.50;;;;;;;6.62;78.24;100985.44;4203660;28;20285;-68
2023/05/18 02:14:14;;;;;;;6.03;2.20;;;;;;;6.73;78.15;100986.50;4208993;28;20615;-69
2023/05/18 02:16:46;;;;;;;16.77;2.67;;;;;;;6.68;78.62;100985.97;4214144;28;22319;-66
2023/05/18 02:19:16;;;;;;;12.67;2.57;;;;;;;6.65;78.70;100984.34;4206989;28;20244;-68
2023/05/18 02:21:43;;;;;;;13.70;1.97;;;;;;;6.58;79.08;100983.94;4214153;28;20589;-68
2023/05/18 02:24:11;;;;;;;9.90;2.40;;;;;;;6.61;79.31;100989.06;4211155;28;23825;-67
2023/05/18 02:26:38;;;;;;;8.13;1.90;;;;;;;6.60;79.15;100987.38;4219609;28;20243;-69
2023/05/18 02:29:05;;;;;;;17.33;2.37;;;;;;;6.58;79.46;100988.44;4229883;28;21579;-69
2023/05/18 02:31:32;;;;;;;12.20;2.50;;;;;;;6.43;80.16;100993.06;4206167;28;20235;-67
2023/05/18 02:33:58;;;;;;;11.87;2.63;;;;;;;6.40;80.21;100985.22;4219680;28;21417;-68
2023/05/18 02:36:25;;;;;;;10.13;2.00;;;;;;;6.42;80.22;100994.88;4229254;28;20327;-66
2023/05/18 02:38:51;;;;;;;12.80;1.93;;;;;;;6.42;80.29;101002.09;4209901;28;20602;-68
2023/05/18 02:41:18;;;;;;;10.87;2.37;;;;;;;6.44;80.36;100997.50;4212978;28;21147;-68
2023/05/18 02:43:44;;;;;;;8.93;2.10;;;;;;;6.42;80.43;101002.09;4219008;28;20236;-66
2023/05/18 02:46:11;;;;;;;16.17;2.60;;;;;;;6.24;81.62;101001.56;4216533;28;20235;-69
2023/05/18 02:48:37;;;;;;;10.73;2.30;;;;;;;6.25;81.20;101004.13;4206460;28;20228;-69
2023/05/18 02:51:04;;;;;;;15.97;2.73;;;;;;;6.18;81.49;101005.50;4210822;28;20243;-69
2023/05/18 02:53:30;;;;;;;10.70;1.87;;;;;;;6.16;81.61;101010.13;4221506;28;20366;-67
2023/05/18 02:55:57;;;;;;;13.77;2.50;;;;;;;6.06;81.90;101007.22;4209252;28;20232;-66
2023/05/18 02:58:24;;;;;;;16.27;2.63;;;;;;;6.05;81.95;101002.78;4224330;28;20410;-67
2023/05/18 03:00:53;;;;;;;17.67;2.67;;;;;;;6.08;81.79;100999.91;4224089;28;20240;-66
2023/05/18 03:03:22;;;;;;;12.80;2.27;;;;;;;6.22;81.41;101009.72;4189974;28;20296;-68
2023/05/18 03:05:51;;;;;;;13.53;2.33;;;;;;;6.20;80.92;101011.66;4219752;28;20313;-69
2023/05/18 03:08:19;;;;;;;9.93;2.30;;;;;;;6.14;81.52;101020.16;4221355;28;20232;-68
2023/05/18 03:10:46;;;;;;;7.50;2.33;;;;;;;6.18;81.25;101019.84;4204382;28;20836;-69
2023/05/18 03:13:13;;;;;;;14.47;2.63;;;;;;;5.98;82.45;101021.16;4223700;28;20317;-68
2023/05/18 03:15:40;;;;;;;15.90;2.60;;;;;;;6.15;81.73;101025.41;4232832;28;20353;-69
2023/05/18 03:18:06;;;;;;;13.93;2.27;;;;;;;6.17;81.87;101027.97;4203745;28;20229;-68
2023/05/18 03:20:34;;;;;;;13.07;2.60;;;;;;;6.14;81.79;101029.06;4215605;28;22861;-70
2023/05/18 03:23:00;;;;;;;14.60;2.97;;;;;;;6.18;81.61;101032.41;4219453;28;24994;-69
2023/05/18 03:25:27;;;;;;;14.33;2.13;;;;;;;6.16;81.74;101045.06;4214655;28;20236;-69
2023/05/18 03:27:55;;;;;;;11.97;2.40;;;;;;;6.19;82.05;101034.97;4213984;28;20394;-68
2023/05/18 03:30:22;;;;;;;16.40;2.47;;;;;;;6.11;81.95;101034.66;4206276;28;20232;-68
2023/05/18 03:32:48;;;;;;;15.57;2.60;;;;;;;6.20;82.06;101041.22;4221961;28;22100;-69
2023/05/18 03:35:15;;;;;;;17.80;3.67;;;;;;;6.24;81.72;101044.56;4201539;28;20631;-69
2023/05/18 03:37:42;;;;;;;12.87;2.83;;;;;;;6.02;83.15;101041.50;4203336;28;20237;-69
2023/05/18 03:40:13;;;;;;;12.67;2.50;;;;;;;6.22;82.46;101049.19;4216342;28;21942;-66
2023/05/18 03:42:40;;;;;;;16.93;3.07;;;;;;;6.40;82.20;101056.00;4219907;28;20233;-70
2023/05/18 03:45:08;;;;;;;10.73;2.50;;;;;;;6.43;81.75;101050.41;4200389;28;20230;-70
2023/05/18 03:47:35;;;;;;;11.60;2.50;;;;;;;6.47;80.97;101045.66;4193933;28;20292;-69
2023/05/18 03:50:02;;;;;;;13.73;3.00;;;;;;;6.70;79.78;101051.28;4212931;28;20244;-67
2023/05/18 03:52:33;;;;;;;13.17;2.80;;;;;;;6.80;79.49;101050.53;4217687;28;21132;-68
2023/05/18 03:55:00;;;;;;;13.33;2.40;;;;;;;6.79;78.77;101058.72;4210893;28;20289;-69
2023/05/18 03:57:27;;;;;;;19.63;3.90;;;;;;;6.81;78.75;101060.31;4212407;28;22960;-68
2023/05/18 03:59:55;;;;;;;11.50;2.27;;;;;;;6.82;78.69;101063.91;4212926;28;20231;-67
2023/05/18 04:02:22;;;;;;;12.10;2.53;;;;;;;7.00;78.43;101067.13;4205081;28;20302;-63
2023/05/18 04:04:48;;;;;;;9.27;2.10;;;;;;;6.84;78.12;101066.47;4214253;28;20244;-61
2023/05/18 04:07:15;;;;;;;15.90;2.97;;;;;;;6.73;77.99;101065.38;4221100;28;20232;-65
2023/05/18 04:09:43;;;;;;;14.33;2.53;;;;;;;6.94;77.51;101070.25;4203939;28;20676;-66
2023/05/18 04:12:10;;;;;;;8.03;2.13;;;;;;;7.00;77.04;101072.50;4236411;28;20241;-61
2023/05/18 04:14:36;;;;;;;14.17;2.97;;;;;;;7.08;77.03;101071.94;4212152;28;21803;-64
2023/05/18 04:17:06;;;;;;;14.50;2.73;;;;;;;7.13;76.76;101078.72;4209625;28;20236;-62
2023/05/18 04:19:33;;;;;;;15.63;3.10;;;;;;;6.93;77.05;101077.44;4228066;28;20354;-62
2023/05/18 04:22:03;;;;;;;23.70;3.20;;;;;;;6.87;76.81;101077.03;4211724;28;20228;-65
2023/05/18 04:24:36;;;;;;;12.10;2.63;;;;;;;6.92;77.32;101081.09;4224641;28;20299;-63
2023/05/18 04:27:02;;;;;;;8.77;2.50;;;;;;;6.96;76.96;101082.63;4218526;28;20611;-66
2023/05/18 04:29:29;;;;;;;17.27;2.87;;;;;;;6.90;77.18;101079.50;4220153;28;20553;-64
2023/05/18 04:31:59;;;;;;;14.67;2.70;;;;;;;7.08;76.71;101088.97;4220624;28;20240;-66
2023/05/18 04:34:27;;;;;;;12.77;2.80;;;;;;;6.94;76.51;101084.56;4203004;28;20254;-66
2023/05/18 04:36:54;;;;;;;16.10;3.00;;;;;;;6.96;76.73;101093.38;4220324;28;20232;-64
2023/05/18 04:39:24;;;;;;;12.77;2.40;;;;;;;7.36;76.08;101095.06;4221634;28;20598;-63
2023/05/18 04:41:57;;;;;;;9.50;2.20;;;;;;;7.37;75.46;101099.50;4217425;28;20240;-63
2023/05/18 04:44:27;;;;;;;8.27;2.53;;;;;;;7.38;75.16;101100.34;4205792;28;20232;-65
2023/05/18 04:46:54;;;;;;;14.40;2.40;;;;;;;7.50;74.96;101107.56;4208374;28;20237;-65
2023/05/18 04:49:21;;;;;;;13.93;2.57;;;;;;;7.56;74.32;101103.53;4205889;28;20235;-65
2023/05/18 04:51:54;;;;;;;10.90;2.03;;;;;;;7.45;75.41;101094.41;4212336;28;21496;-63
2023/05/18 04:54:24;;;;;;;8.53;2.43;;;;;;;7.56;74.51;101100.84;4185607;28;20237;-65
2023/05/18 04:56:51;;;;;;;13.83;2.53;;;;;;;7.80;72.92;101106.28;4201446;28;20538;-65
2023/05/18 04:59:18;;;;;;;17.97;2.97;;;;;;;7.69;73.35;101104.38;4203450;28;20231;-68
2023/05/18 05:01:45;;;;;;;12.27;2.73;;;;;;;7.55;73.90;101102.69;4217576;28;21373;-64
2023/05/18 05:04:12;;;;;;;7.27;2.17;;;;;;;7.75;73.06;101101.25;4218116;28;20231;-63
2023/05/18 05:06:39;;;;;;;20.97;3.33;;;;;;;7.87;72.81;101106.69;4216139;28;21594;-66
2023/05/18 05:09:06;;;;;;;9.27;2.20;;;;;;;7.95;72.25;101103.44;4214115;28;21128;-67
2023/05/18 05:11:33;;;;;;;14.37;2.33;;;;;;;7.97;72.62;101106.88;4209553;28;20240;-62
2023/05/18 05:14:01;;;;;;;13.30;2.37;;;;;;;7.87;72.60;101112.94;4211902;28;21083;-65
2023/05/18 05:16:28;;;;;;;12.03;2.40;;;;;;;7.78;73.03;101101.00;4195372;28;21675;-65
2023/05/18 05:18:55;;;;;;;13.50;2.50;;;;;;;8.04;72.43;101106.31;4216298;28;20244;-63
2023/05/18 05:21:22;;;;;;;11.57;2.43;;;;;;;8.25;71.53;101111.94;4224603;28;21930;-61
2023/05/18 05:23:49;;;;;;;8.90;2.50;;;;;;;8.19;71.73;101112.41;4214669;28;21130;-64
2023/05/18 05:26:16;;;;;;;11.87;2.07;;;;;;;8.18;71.74;101117.88;4215516;28;20347;-66
2023/05/18 05:28:42;;;;;;;19.33;3.00;;;;;;;8.37;71.70;101120.94;4210606;28;21575;-65
2023/05/18 05:31:09;;;;;;;12.53;2.10;;;;;;;8.54;71.71;101116.97;4215945;28;20236;-65
2023/05/18 05:33:36;;;;;;;11.60;2.33;;;;;;;8.72;70.53;101112.00;4208020;28;20276;-64
2023/05/18 05:36:04;;;;;;;10.63;2.30;;;;;;;8.62;70.40;101123.63;4208773;28;20362;-65
2023/05/18 05:38:31;;;;;;;12.37;2.67;;;;;;;8.69;70.86;101116.78;4207691;28;20516;-65
2023/05/18 05:40:57;;;;;;;11.00;2.67;;;;;;;8.47;71.03;101121.13;4218964;28;22432;-66
2023/05/18 05:43:24;;;;;;;9.07;2.43;;;;;;;8.47;71.60;101125.63;4221807;28;20243;-71
2023/05/18 05:45:51;;;;;;;12.50;2.60;;;;;;;8.90;71.71;101127.75;4215802;28;20556;-69
2023/05/18 05:48:17;;;;;;;10.27;2.20;;;;;;;9.27;70.54;101123.97;4207069;28;20238;-63
2023/05/18 05:50:45;;;;;;;12.87;2.57;;;;;;;9.25;69.43;101121.41;4211065;28;20228;-64
2023/05/18 05:53:11;;;;;;;9.00;2.60;;;;;;;9.33;68.86;101131.59;4215542;28;20227;-62
2023/05/18 05:55:40;;;;;;;7.50;2.13;;;;;;;9.62;68.52;101121.16;4216403;28;20236;-64
2023/05/18 05:58:08;;;;;;;8.80;2.30;;;;;;;9.40;69.22;101119.34;4203066;28;20241;-63
2023/05/18 06:00:35;;;;;;;10.63;2.53;;;;;;;9.42;68.39;101128.16;4216648;28;20239;-63
2023/05/18 06:03:01;;;;;;;11.87;2.83;;;;;;;9.53;68.46;101127.28;4196820;28;20229;-65
2023/05/18 06:05:28;;;;;;;12.13;1.73;;;;;;;9.76;67.47;101130.84;4208415;28;21346;-65
2023/05/18 06:07:56;;;;;;;16.17;2.40;;;;;;;9.40;68.61;101130.16;4214448;28;21175;-63
2023/05/18 06:10:22;;;;;;;12.83;1.90;;;;;;;9.50;68.17;101120.28;4215182;28;20302;-63
2023/05/18 06:12:49;;;;;;;6.53;1.80;;;;;;;9.66;67.58;101132.56;4222439;28;20682;-65
2023/05/18 06:15:15;;;;;;;9.93;2.00;;;;;;;9.86;66.38;101130.94;4202894;28;21217;-64
2023/05/18 06:17:42;;;;;;;6.93;1.97;;;;;;;9.93;66.15;101128.63;4203391;28;20229;-64
2023/05/18 06:20:11;;;;;;;6.47;1.87;;;;;;;10.01;64.73;101131.53;4214211;28;20250;-60
2023/05/18 06:22:37;;;;;;;7.50;1.70;;;;;;;9.97;64.27;101124.66;4217569;28;20228;-63
2023/05/18 06:25:04;;;;;;;13.63;1.97;;;;;;;9.99;64.82;101133.50;4218769;28;21737;-62
2023/05/18 06:27:31;;;;;;;10.13;1.80;;;;;;;10.00;65.77;101132.53;4229807;28;20343;-64
2023/05/18 06:29:58;;;;;;;7.43;1.60;;;;;;;10.19;64.60;101133.69;4222570;28;20247;-64
2023/05/18 06:32:25;;;;;;;12.10;2.13;;;;;;;10.12;63.75;101133.38;4210253;28;20228;-65
2023/05/18 06:34:51;;;;;;;7.60;1.67;;;;;;;9.98;63.55;101139.91;4218930;28;21986;-63
2023/05/18 06:37:19;;;;;;;7.40;1.73;;;;;;;9.85;64.14;101126.53;4232868;28;21010;-67
2023/05/18 06:39:48;;;;;;;12.33;1.60;;;;;;;9.78;64.13;101133.41;4214571;28;22215;-66
2023/05/18 06:42:14;;;;;;;4.50;1.27;;;;;;;10.18;63.31;101138.25;4209297;28;20596;-67
2023/05/18 06:44:41;;;;;;;7.80;1.37;;;;;;;10.70;62.37;101141.13;4220991;28;20250;-63
2023/05/18 06:47:07;;;;;;;13.07;1.60;;;;;;;11.12;60.72;101144.84;4215016;28;20318;-65
2023/05/18 06:49:34;;;;;;;5.03;1.20;;;;;;;10.75;60.23;101149.75;4216509;28;20234;-65
2023/05/18 06:52:01;;;;;;;3.63;1.00;;;;;;;10.61;60.53;101148.22;4219113;28;20227;-63
2023/05/18 06:54:28;;;;;;;6.13;1.23;;;;;;;10.45;60.34;101145.06;4216866;28;20247;-67
2023/05/18 06:56:55;;;;;;;3.63;1.03;;;;;;;10.65;59.60;101146.09;4231512;28;21916;-65
2023/05/18 06:59:22;;;;;;;2.23;0.90;;;;;;;10.92;58.48;101144.72;4214589;28;20379;-64
2023/05/18 07:01:48;;;;;;;4.17;1.07;;;;;;;10.70;59.07;101145.72;4215373;28;20240;-63
2023/05/18 07:04:18;;;;;;;2.83;1.10;;;;;;;10.68;59.75;101143.13;4212435;28;20262;-63
2023/05/18 07:06:45;;;;;;;4.30;1.40;;;;;;;10.54;59.78;101156.97;4205777;28;20232;-62
2023/05/18 07:09:11;;;;;;;3.67;0.90;;;;;;;10.54;60.58;101148.84;4210940;28;21723;-65
2023/05/18 07:11:41;;;;;;;3.67;0.90;;;;;;;10.80;60.14;101160.16;4203628;28;22286;-63
2023/05/18 07:14:07;;;;;;;2.83;1.00;;;;;;;10.60;60.23;101157.31;4218435;28;20232;-63
2023/05/18 07:16:34;;;;;;;4.40;1.00;;;;;;;10.83;59.48;101159.06;4213859;28;21640;-64
2023/05/18 07:19:01;;;;;;;5.73;0.90;;;;;;;10.70;58.75;101151.97;4212628;28;23571;-63
2023/05/18 07:21:28;;;;;;;3.37;0.90;;;;;;;10.54;59.94;101162.38;4215997;28;20238;-63
2023/05/18 07:23:54;;;;;;;5.47;1.03;;;;;;;10.46;60.42;101166.59;4208396;28;21024;-66
2023/05/18 07:26:21;;;;;;;5.50;0.87;;;;;;;10.43;60.33;101168.69;4216285;28;20271;-63
2023/05/18 07:28:50;;;;;;;2.57;0.90;;;;;;;10.52;59.38;101170.63;4213302;28;20991;-67
2023/05/18 07:31:17;;;;;;;5.73;0.77;;;;;;;10.79;59.80;101161.19;4209199;28;21615;-64
2023/05/18 07:33:44;;;;;;;5.37;1.27;;;;;;;11.10;58.37;101167.50;4211000;28;20236;-65
2023/05/18 07:36:10;;;;;;;4.17;1.27;;;;;;;11.38;57.35;101170.53;4210934;28;20296;-63
2023/05/18 07:38:37;;;;;;;4.97;1.03;;;;;;;11.37;56.80;101171.50;4207918;28;20245;-63
2023/05/18 07:41:03;;;;;;;2.67;0.73;;;;;;;11.05;58.53;101174.31;4214999;28;20231;-63
2023/05/18 07:43:30;;;;;;;4.53;0.90;;;;;;;11.36;57.55;101180.66;4204476;28;20362;-63
2023/05/18 07:45:56;;;;;;;5.40;0.90;;;;;;;11.35;57.29;101178.06;4218736;28;20232;-63
2023/05/18 07:48:23;;;;;;;3.10;0.70;;;;;;;11.43;56.73;101169.28;4202385;28;20229;-63
2023/05/18 07:50:50;;;;;;;3.90;0.80;;;;;;;11.67;56.70;101166.22;4216567;28;24966;-64
2023/05/18 07:53:17;;;;;;;10.63;1.23;;;;;;;11.52;57.35;101180.16;4217391;28;20243;-64
2023/05/18 07:55:44;;;;;;;4.07;0.90;;;;;;;12.23;56.74;101178.41;4212275;28;21213;-67
2023/05/18 07:58:11;;;;;;;3.47;0.90;;;;;;;12.07;55.50;101178.09;4207502;28;20256;-64
2023/05/18 08:00:37;;;;;;;5.77;0.90;;;;;;;11.91;56.06;101182.16;4211818;28;20240;-63
2023/05/18 08:03:05;;;;;;;6.80;1.10;;;;;;;12.79;54.67;101186.91;4212773;28;21437;-67
2023/05/18 08:05:32;;;;;;;6.83;1.23;;;;;;;13.05;53.63;101187.16;4211561;28;20534;-65
2023/05/18 08:07:59;;;;;;;2.27;0.90;;;;;;;13.32;52.27;101180.09;4211713;28;20250;-63
2023/05/18 08:10:25;;;;;;;2.30;0.83;;;;;;;13.09;51.47;101188.59;4206619;28;20291;-66
2023/05/18 08:12:52;;;;;;;6.97;1.07;;;;;;;12.82;53.08;101194.75;4207450;28;20231;-64
2023/05/18 08:15:19;;;;;;;4.80;0.77;;;;;;;13.45;52.46;101175.22;4218609;28;21261;-63
2023/05/18 08:17:46;;;;;;;6.33;0.80;;;;;;;12.87;52.96;101191.59;4210215;28;26054;-64
2023/05/18 08:20:12;;;;;;;2.37;0.80;;;;;;;13.30;53.03;101192.97;4221677;28;20413;-65
2023/05/18 08:22:39;;;;;;;2.33;0.70;;;;;;;13.73;52.18;101185.28;4217009;28;20231;-65
2023/05/18 08:25:06;;;;;;;1.53;0.80;;;;;;;13.52;50.87;101190.97;4208353;28;23698;-67
2023/05/18 08:27:32;;;;;;;5.17;1.07;;;;;;;13.38;51.12;101178.66;4215632;28;22916;-63
2023/05/18 08:29:59;;;;;;;2.87;0.77;;;;;;;13.23;51.82;101192.72;4202833;28;21506;-63
2023/05/18 08:32:27;;;;;;;2.83;0.93;;;;;;;13.54;51.05;101187.09;4202609;28;20233;-64
2023/05/18 08:34:53;;;;;;;2.53;0.90;;;;;;;13.89;51.09;101196.38;4213210;28;20267;-63
2023/05/18 08:37:21;;;;;;;2.93;0.90;;;;;;;13.95;50.51;101182.16;4211641;28;20554;-62
2023/05/18 08:39:47;;;;;;;3.27;0.60;;;;;;;13.90;50.42;101192.66;4218751;28;20240;-66
2023/05/18 08:42:27;;;;;;;2.30;0.70;;;;;;;13.49;50.79;101188.53;4215368;28;20283;-65
2023/05/18 08:45:34;;;;;;;2.33;0.80;;;;;;;13.23;51.38;101200.88;4234921;28;26050;-61
2023/05/18 08:48:02;;;;;;;5.87;0.83;;;;;;;13.77;51.29;101193.00;4209840;28;20240;-64
2023/05/18 08:50:30;;;;;;;4.03;0.90;;;;;;;13.27;52.34;101196.84;4209578;28;21066;-63
2023/05/18 08:53:00;;;;;;;2.20;0.93;;;;;;;13.32;52.77;101191.84;4202266;28;20580;-69
2023/05/18 08:55:27;;;;;;;4.33;0.97;;;;;;;13.25;52.55;101189.84;4210421;28;23111;-64
2023/05/18 08:57:56;;;;;;;5.77;1.10;;;;;;;13.31;51.64;101192.84;4201785;28;20834;-64
2023/05/18 09:00:23;;;;;;;3.27;0.97;;;;;;;13.08;53.36;101194.16;4211158;28;20240;-64
2023/05/18 09:02:50;;;;;;;3.87;1.03;;;;;;;13.07;53.67;101201.44;4204469;28;20408;-61
2023/05/18 09:05:17;;;;;;;3.30;1.00;;;;;;;13.12;52.93;101199.19;4194057;28;20266;-67
2023/05/18 09:07:44;;;;;;;5.27;0.97;;;;;;;13.10;54.02;101197.63;4218181;28;20244;-64
2023/05/18 09:10:14;;;;;;;4.53;1.00;;;;;;;13.00;53.25;101203.03;4211823;28;20915;-67
2023/05/18 09:12:42;;;;;;;2.80;1.03;;;;;;;12.47;55.46;101204.31;4203530;28;20240;-66
2023/05/18 09:15:09;;;;;;;2.23;0.73;;;;;;;12.79;54.90;101203.22;4219437;28;20309;-64
2023/05/18 09:17:36;;;;;;;4.20;1.00;;;;;;;12.56;55.49;101192.63;4211973;28;20246;-64
2023/05/18 09:20:06;;;;;;;6.90;1.27;;;;;;;12.77;55.30;101195.19;4208565;28;21342;-63
2023/05/18 09:22:39;;;;;;;5.10;1.10;;;;;;;12.65;55.11;101215.34;4209658;28;20238;-65
2023/05/18 09:25:09;;;;;;;18.73;1.10;;;;;;;12.36;56.50;101200.72;4210286;28;20357;-65
2023/05/18 09:27:36;;;;;;;8.30;1.33;;;;;;;12.59;55.50;101200.47;4212459;28;20250;-64
2023/05/18 09:30:04;;;;;;;9.03;1.53;;;;;;;12.96;54.87;101197.03;4216898;28;20242;-64
2023/05/18 09:32:35;;;;;;;7.43;1.60;;;;;;;13.02;55.40;101208.34;4219516;28;21400;-65
2023/05/18 09:35:05;;;;;;;3.97;1.20;;;;;;;12.87;56.34;101199.75;4219621;28;20236;-57
2023/05/18 09:37:32;;;;;;;3.57;0.77;;;;;;;13.35;55.79;101201.56;4232313;28;20231;-68
2023/05/18 09:40:04;;;;;;;9.53;1.00;;;;;;;13.52;53.72;101197.25;4221955;28;20224;-63
2023/05/18 09:42:42;;;;;;;2.70;0.83;;;;;;;13.32;53.63;101202.72;4222866;28;23302;-63
2023/05/18 09:45:16;;;;;;;7.13;0.90;;;;;;;13.20;53.64;101203.88;4221078;28;22352;-62
2023/05/18 09:47:43;;;;;;;1.80;0.87;;;;;;;13.35;53.52;101201.56;4205579;28;22100;-62
2023/05/18 09:50:10;;;;;;;4.03;1.00;;;;;;;13.51;52.73;101189.25;4219786;28;20236;-62
2023/05/18 09:52:43;;;;;;;4.60;1.10;;;;;;;13.39;53.62;101205.72;4219006;28;21478;-64
2023/05/18 09:55:11;;;;;;;3.87;0.97;;;;;;;13.32;55.16;101213.59;4196558;28;20237;-64
2023/05/18 09:57:47;;;;;;;2.83;0.90;;;;;;;13.50;53.96;101201.13;4214532;28;25378;-62
2023/05/18 10:00:15;;;;;;;3.63;1.10;;;;;;;13.11;54.89;101221.03;4208112;28;22881;-63
2023/05/18 10:02:48;;;;;;;5.73;1.40;;;;;;;13.31;55.14;101214.59;4218967;28;20265;-65
2023/05/18 10:05:22;;;;;;;4.10;0.90;;;;;;;13.76;54.33;101209.47;4224008;28;20223;-64
2023/05/18 10:07:55;;;;;;;4.33;1.03;;;;;;;14.16;52.32;101194.66;4226435;28;21046;-62
2023/05/18 10:10:25;;;;;;;5.00;1.13;;;;;;;14.14;53.35;101201.25;4208613;28;20296;-64
2023/05/18 10:12:52;;;;;;;3.53;0.80;;;;;;;13.95;52.18;101194.94;4215748;28;20240;-66
2023/05/18 10:15:21;;;;;;;3.03;0.80;;;;;;;13.68;55.00;101199.31;4217492;28;20264;-62
2023/05/18 10:17:49;;;;;;;0.97;0.47;;;;;;;13.77;53.36;101209.31;4226198;28;20231;-62
2023/05/18 10:20:18;;;;;;;2.27;0.70;;;;;;;13.55;53.98;101202.41;4218576;28;20648;-66
2023/05/18 10:22:46;;;;;;;4.40;0.97;;;;;;;13.70;53.40;101204.66;4211529;28;22464;-61
2023/05/18 10:25:19;;;;;;;3.37;0.70;;;;;;;14.04;52.83;101185.00;4215101;28;20426;-63
2023/05/18 10:27:47;;;;;;;1.97;0.77;;;;;;;14.37;52.89;101196.25;4224073;28;20239;-62
2023/05/18 10:30:14;;;;;;;3.87;0.70;;;;;;;14.16;51.38;101193.81;4199439;28;21664;-64
2023/05/18 10:32:41;;;;;;;5.17;1.80;;;;;;;13.59;52.75;101192.94;4232781;28;21430;-61
2023/05/18 10:35:09;;;;;;;2.77;0.67;;;;;;;13.65;52.32;101194.19;4205768;28;20236;-66
2023/05/18 10:37:38;;;;;;;3.30;0.70;;;;;;;13.77;52.22;101184.00;4213523;28;21132;-62
2023/05/18 10:40:06;;;;;;;3.47;0.77;;;;;;;14.33;51.75;101193.00;4219926;28;21129;-62
2023/05/18 10:42:34;;;;;;;2.30;0.77;;;;;;;14.65;51.62;101193.47;4216312;28;20244;-63
2023/05/18 10:45:00;;;;;;;1.50;0.67;;;;;;;14.50;51.15;101185.84;4213652;28;20277;-63
2023/05/18 10:47:27;;;;;;;1.13;0.60;;;;;;;14.52;51.18;101191.13;4203070;28;22940;-63
2023/05/18 10:49:57;;;;;;;3.10;0.70;;;;;;;14.78;50.61;101187.66;4203918;28;20232;-62
2023/05/18 10:52:30;;;;;;;4.97;1.03;;;;;;;14.84;50.95;101192.50;4206926;28;25193;-63
2023/05/18 10:55:00;;;;;;;4.53;0.60;;;;;;;14.52;48.80;101193.84;4214179;28;22224;-61
2023/05/18 10:57:34;;;;;;;3.30;0.60;;;;;;;14.52;49.32;101188.41;4214888;28;20231;-64
2023/05/18 11:00:02;;;;;;;4.33;0.50;;;;;;;14.81;47.84;101187.34;4199380;28;20590;-63
2023/05/18 11:02:29;;;;;;;2.37;0.50;;;;;;;14.58;49.23;101190.50;4193579;28;20233;-61
2023/05/18 11:04:55;;;;;;;4.17;1.03;;;;;;;14.21;51.22;101186.91;4208157;28;20243;-63
2023/05/18 11:07:23;;;;;;;3.43;0.53;;;;;;;14.40;51.05;101188.63;4220404;28;20246;-63
2023/05/18 11:09:50;;;;;;;2.23;0.60;;;;;;;14.26;51.82;101192.75;4214230;28;21336;-65
2023/05/18 11:12:17;;;;;;;3.67;0.70;;;;;;;15.18;49.66;101186.28;4213990;28;20228;-64
2023/05/18 11:14:49;;;;;;;3.17;0.50;;;;;;;14.54;50.88;101189.97;4203633;28;21883;-61
2023/05/18 11:17:24;;;;;;;2.77;0.60;;;;;;;14.57;51.12;101188.81;4206292;28;20318;-61
2023/05/18 11:20:13;;;;;;;2.30;0.60;;;;;;;14.73;49.62;101185.41;4212634;28;20606;-64
2023/05/18 11:22:51;;;;;;;2.10;0.57;;;;;;;14.68;50.09;101179.59;4218118;28;22428;-62
2023/05/18 11:25:27;;;;;;;1.33;0.50;;;;;;;14.39;50.18;101184.19;4202065;28;20803;-62
2023/05/18 11:28:02;;;;;;;5.13;0.80;;;;;;;14.49;51.24;101183.28;4202355;28;20235;-67
2023/05/18 11:30:40;;;;;;;1.50;0.60;;;;;;;14.71;49.95;101181.97;4208833;28;25552;-61